Accueil
METAR-TAF:

METAR-TAF

Aéroports :

Natal, Rio Grande do Norte, Brésil

latitude: 05-46-05S, longitude: 035-22-34W, altitude: 88 m

Observation

Le bulletin a été fait il y a 1 heure et 18 minutes, à 22:00 UTC
Vent 6 kt de sud/sud-est
Température 26°C
Humidité 84%
Pression 1014 hPa
Visibilité 10 km ou plus
pas de nuages en-dessous de 1500 mètres et pas de cumulonimbus.

METAR: SBSG 242200Z 16006KT CAVOK 26/23 Q1014

Heure: 20:18 (23:18 UTC)

Prévision

Le bulletin a été fait il y a 7 heures et 18 minutes, à 16:00 UTC
Prévision valable du 24 à 18 UTC au 25 à 18 UTC
Vent 8 kt de sud
Visibilité: 8000 m
Nuages épars à une hauteur de 2500 ft
Evoluant progressivement
du 25 à 00 UTC au 25 à 02 UTC
Vent 5 kt de sud-ouest
Evoluant progressivement
du 25 à 10 UTC au 25 à 12 UTC
Vent 10 kt de sud

TAF: SBSG 241600Z 2418/2518 18008KT 8000 SCT025 TN23/2508Z TX30/2516Z BECMG 2500/2502 22005KT BECMG 2510/2512 17010KT RMK PEU

Observations et prévisions météorologiques de plus de 4000 aéroports (messages METAR et TAF).

Les stations disponibles sont représentées par des disques jaunes et rouges sur la carte.

Passer la souris dessus pour voir le nom de la station.

Cliquer dessus pour voir les observations et prévisions météorologiques.

Pour changer de carte: cliquez sur les boutons verts avec une croix noire pour zoomer, sur le bouton vert avec un tiret pour effectuer un zoom arrière, ou sur les flèches vertes pour les cartes adjacentes.


METAR-TAF: